createdAt,value
2023-04-16T00:03:55.801Z,3.05
2023-04-16T00:09:00.847Z,4.07
2023-04-16T00:14:05.197Z,4.53
2023-04-16T00:19:16.974Z,3.55
2023-04-16T00:24:21.346Z,3.38
2023-04-16T00:29:27.583Z,3.95
2023-04-16T00:34:33.386Z,9.73
2023-04-16T00:39:37.528Z,6.25
2023-04-16T00:44:43.357Z,4.60
2023-04-16T00:49:49.753Z,4.13
2023-04-16T00:54:55.129Z,4.05
2023-04-16T01:00:01.047Z,4.82
2023-04-16T01:05:09.588Z,10.23
2023-04-16T01:10:13.791Z,12.20
2023-04-16T01:15:18.348Z,7.78
2023-04-16T01:20:24.080Z,10.27
2023-04-16T01:25:29.740Z,11.00
2023-04-16T01:30:33.874Z,10.20
2023-04-16T01:35:49.806Z,7.65
2023-04-16T01:40:59.591Z,5.25
2023-04-16T01:46:15.352Z,8.00
2023-04-16T01:51:19.717Z,11.60
2023-04-16T01:56:25.364Z,7.43
2023-04-16T02:01:30.306Z,6.75
2023-04-16T02:06:35.724Z,9.38
2023-04-16T02:11:42.325Z,6.00
2023-04-16T02:16:46.937Z,5.90
2023-04-16T02:22:04.848Z,4.20
2023-04-16T02:27:17.612Z,3.05
2023-04-16T02:32:22.360Z,3.28
2023-04-16T02:37:26.651Z,4.30
2023-04-16T02:42:32.048Z,3.75
2023-04-16T02:47:36.188Z,3.15
2023-04-16T02:52:40.614Z,3.10
2023-04-16T02:57:46.072Z,3.97
2023-04-16T03:02:50.218Z,3.63
2023-04-16T03:07:56.908Z,3.78
2023-04-16T03:13:02.557Z,4.47
2023-04-16T03:18:06.923Z,5.85
2023-04-16T03:23:10.979Z,4.70
2023-04-16T03:28:16.405Z,6.25
2023-04-16T03:33:21.253Z,6.43
2023-04-16T03:38:26.190Z,5.40
2023-04-16T03:43:34.226Z,9.32
2023-04-16T03:48:40.377Z,9.68
2023-04-16T03:53:45.020Z,7.38
2023-04-16T03:58:52.304Z,5.22
2023-04-16T04:03:57.366Z,16.45
2023-04-16T04:09:01.552Z,12.43
2023-04-16T04:14:08.339Z,11.27
2023-04-16T04:19:12.779Z,8.85
2023-04-16T04:24:16.856Z,12.10
2023-04-16T04:29:23.443Z,9.10
2023-04-16T04:34:27.836Z,7.90
2023-04-16T04:39:35.659Z,8.25
2023-04-16T04:44:41.445Z,8.25
2023-04-16T04:49:46.721Z,17.42
2023-04-16T04:54:50.793Z,12.77
2023-04-16T04:59:56.522Z,15.98
2023-04-16T05:05:00.910Z,14.32
2023-04-16T05:10:05.222Z,11.82
2023-04-16T05:15:12.129Z,11.38
2023-04-16T05:20:16.286Z,18.13
2023-04-16T05:25:21.091Z,18.52
2023-04-16T05:30:26.646Z,14.23
2023-04-16T05:35:30.774Z,17.33
2023-04-16T05:40:35.312Z,6.40
2023-04-16T05:45:41.499Z,5.45
2023-04-16T05:50:45.544Z,12.73
2023-04-16T05:55:49.752Z,11.65
2023-04-16T06:00:55.268Z,8.75
2023-04-16T06:05:59.442Z,8.65
2023-04-16T06:11:04.047Z,8.63
2023-04-16T06:16:10.578Z,6.50
2023-04-16T06:21:14.696Z,4.00
2023-04-16T06:26:21.178Z,5.25
2023-04-16T06:31:26.907Z,2.72
2023-04-16T06:36:31.352Z,3.35
2023-04-16T06:41:35.408Z,3.15
2023-04-16T06:46:41.060Z,2.92
2023-04-16T06:51:46.965Z,2.40
2023-04-16T06:56:51.311Z,2.45
2023-04-16T07:01:59.066Z,5.20
2023-04-16T07:07:03.214Z,5.55
2023-04-16T07:12:08.874Z,5.35
2023-04-16T07:17:14.591Z,5.03
2023-04-16T07:22:18.814Z,4.40
2023-04-16T07:27:22.920Z,4.45
2023-04-16T07:32:28.438Z,3.92
2023-04-16T07:37:32.908Z,5.63
2023-04-16T07:42:37.704Z,4.38
2023-04-16T07:47:43.189Z,4.70
2023-04-16T07:52:48.872Z,3.55
2023-04-16T07:57:56.050Z,3.20
2023-04-16T08:03:02.921Z,2.72
2023-04-16T08:08:07.378Z,6.75
2023-04-16T08:13:12.828Z,4.38
2023-04-16T08:18:18.375Z,7.22
2023-04-16T08:23:22.817Z,2.95
2023-04-16T08:28:27.667Z,2.30
2023-04-16T08:33:33.517Z,3.00
2023-04-16T08:38:37.920Z,2.90
2023-04-16T08:43:47.982Z,2.45
2023-04-16T08:48:56.124Z,2.38
2023-04-16T08:54:04.705Z,1.70
2023-04-16T08:59:11.007Z,1.70
2023-04-16T09:04:19.215Z,1.90
2023-04-16T09:09:24.009Z,1.60
2023-04-16T09:14:28.842Z,2.08
2023-04-16T09:19:34.842Z,1.98
2023-04-16T09:24:40.198Z,2.17
2023-04-16T09:29:44.364Z,1.90
2023-04-16T09:35:01.815Z,1.70
2023-04-16T09:40:07.126Z,1.83
2023-04-16T09:45:12.153Z,2.33
2023-04-16T09:50:20.878Z,2.33
2023-04-16T09:55:28.943Z,1.35
2023-04-16T10:00:33.217Z,1.30
2023-04-16T10:05:38.787Z,1.45
2023-04-16T10:10:43.232Z,1.88
2023-04-16T10:15:49.141Z,1.90
2023-04-16T10:20:54.920Z,1.50
2023-04-16T10:26:01.616Z,1.98
2023-04-16T10:31:08.395Z,1.88
2023-04-16T10:36:15.758Z,1.85
2023-04-16T10:41:21.501Z,1.80
2023-04-16T10:46:27.801Z,1.70
2023-04-16T10:51:36.011Z,2.20
2023-04-16T10:56:42.639Z,2.22
2023-04-16T11:01:47.910Z,2.10
2023-04-16T11:07:04.490Z,2.15
2023-04-16T11:12:13.109Z,1.95
2023-04-16T11:17:17.785Z,2.00
2023-04-16T11:22:23.377Z,2.00
2023-04-16T11:27:27.736Z,2.53
2023-04-16T11:32:33.537Z,1.75
2023-04-16T11:37:40.020Z,2.38
2023-04-16T11:42:44.524Z,2.15
2023-04-16T11:47:52.003Z,2.55
2023-04-16T11:53:04.843Z,2.47
2023-04-16T11:58:18.275Z,1.80
2023-04-16T12:03:43.526Z,2.53
2023-04-16T12:08:49.949Z,1.70
2023-04-16T12:14:10.856Z,2.67
2023-04-16T12:19:15.424Z,3.03
2023-04-16T12:24:22.806Z,1.80
2023-04-16T12:29:28.591Z,2.15
2023-04-16T12:34:48.415Z,2.75
2023-04-16T12:39:55.273Z,1.83
2023-04-16T12:44:59.736Z,1.85
2023-04-16T12:50:03.942Z,2.58
2023-04-16T12:55:10.518Z,1.90
2023-04-16T13:00:16.502Z,1.90
2023-04-16T13:05:20.727Z,1.90
2023-04-16T13:10:27.865Z,2.17
2023-04-16T13:15:32.619Z,2.13
2023-04-16T13:20:37.229Z,3.28
2023-04-16T13:25:43.342Z,3.33
2023-04-16T13:30:48.233Z,4.47
2023-04-16T13:35:52.540Z,5.65
2023-04-16T13:40:59.039Z,6.80
2023-04-16T13:46:03.134Z,8.27
2023-04-16T13:51:08.402Z,5.80
2023-04-16T13:56:14.180Z,5.85
2023-04-16T14:01:19.656Z,4.75
2023-04-16T14:06:25.033Z,5.40
2023-04-16T14:11:30.906Z,5.38
2023-04-16T14:16:35.391Z,3.80
2023-04-16T14:21:39.884Z,4.68
2023-04-16T14:26:47.388Z,3.75
2023-04-16T14:31:51.608Z,3.38
2023-04-16T14:36:57.193Z,2.50
2023-04-16T14:42:02.934Z,3.05
2023-04-16T14:47:08.737Z,3.30
2023-04-16T14:52:12.992Z,3.33
2023-04-16T14:57:18.501Z,5.68
2023-04-16T15:02:22.752Z,3.85
2023-04-16T15:07:28.259Z,3.97
2023-04-16T15:12:33.984Z,3.30
2023-04-16T15:17:38.275Z,3.08
2023-04-16T15:22:45.412Z,3.72
2023-04-16T15:27:51.786Z,3.47
2023-04-16T15:33:22.372Z,4.55
2023-04-16T15:38:29.308Z,4.25
2023-04-16T15:43:35.070Z,4.03
2023-04-16T15:48:39.834Z,2.95
2023-04-16T15:53:45.364Z,2.47
2023-04-16T15:58:51.504Z,3.20
2023-04-16T16:03:56.061Z,2.83
2023-04-16T16:09:00.630Z,3.47
2023-04-16T16:14:06.230Z,4.60
2023-04-16T16:19:11.378Z,3.50
2023-04-16T16:24:15.774Z,4.50
2023-04-16T16:29:21.609Z,5.00
2023-04-16T16:34:26.264Z,5.00
2023-04-16T16:39:31.344Z,5.57
2023-04-16T16:44:37.674Z,4.93
2023-04-16T16:49:43.136Z,3.92
2023-04-16T16:54:48.115Z,2.92
2023-04-16T16:59:54.537Z,4.55
2023-04-16T17:04:59.491Z,5.95
2023-04-16T17:10:06.070Z,3.42
2023-04-16T17:15:13.594Z,2.10
2023-04-16T17:20:18.802Z,2.03
2023-04-16T17:25:22.990Z,1.88
2023-04-16T17:30:29.116Z,5.28
2023-04-16T17:35:35.672Z,3.97
2023-04-16T17:40:40.122Z,3.60
2023-04-16T17:45:46.179Z,3.45
2023-04-16T17:50:50.982Z,4.05
2023-04-16T17:55:56.974Z,4.95
2023-04-16T18:01:03.825Z,5.60
2023-04-16T18:06:07.913Z,4.88
2023-04-16T18:11:12.452Z,4.47
2023-04-16T18:16:19.282Z,4.32
2023-04-16T18:21:23.409Z,3.63
2023-04-16T18:26:29.853Z,6.40
2023-04-16T18:31:36.012Z,7.57
2023-04-16T18:36:40.322Z,8.57
2023-04-16T18:41:47.946Z,7.43
2023-04-16T18:46:53.800Z,6.97
2023-04-16T18:51:58.458Z,5.63
2023-04-16T18:57:03.556Z,5.00
2023-04-16T19:02:16.979Z,5.65
2023-04-16T19:07:21.024Z,8.93
2023-04-16T19:12:25.320Z,6.05
2023-04-16T19:17:31.288Z,5.10
2023-04-16T19:22:35.643Z,4.32
2023-04-16T19:27:39.948Z,4.25
2023-04-16T19:32:48.209Z,4.90
2023-04-16T19:37:52.890Z,5.13
2023-04-16T19:42:57.474Z,4.13
2023-04-16T19:48:03.134Z,4.95
2023-04-16T19:53:07.200Z,7.88
2023-04-16T19:58:11.492Z,7.85
2023-04-16T20:03:17.388Z,17.25
2023-04-16T20:08:22.094Z,12.75
2023-04-16T20:13:26.480Z,7.85
2023-04-16T20:18:32.459Z,6.35
2023-04-16T20:23:36.723Z,6.15
2023-04-16T20:28:41.086Z,12.52
2023-04-16T20:33:46.598Z,9.23
2023-04-16T20:38:53.784Z,8.35
2023-04-16T20:44:05.496Z,7.78
2023-04-16T20:49:14.140Z,7.68
2023-04-16T20:54:18.256Z,4.73
2023-04-16T20:59:22.309Z,4.55
2023-04-16T21:04:28.368Z,4.35
2023-04-16T21:09:32.707Z,7.30
2023-04-16T21:14:37.915Z,5.95
2023-04-16T21:19:44.039Z,4.97
2023-04-16T21:24:48.079Z,4.35
2023-04-16T21:29:53.351Z,4.32
2023-04-16T21:34:59.244Z,4.47
2023-04-16T21:40:04.949Z,4.35
2023-04-16T21:45:10.472Z,3.65
2023-04-16T21:50:17.317Z,3.90
2023-04-16T21:55:22.895Z,3.65
2023-04-16T22:00:26.930Z,4.07
2023-04-16T22:05:33.692Z,3.83
2023-04-16T22:10:38.236Z,3.35
2023-04-16T22:15:42.444Z,3.38
2023-04-16T22:20:50.990Z,3.28
2023-04-16T22:25:57.718Z,3.83
2023-04-16T22:31:01.982Z,2.92
2023-04-16T22:36:09.205Z,3.70
2023-04-16T22:41:13.491Z,3.97
2023-04-16T22:46:20.315Z,4.03
2023-04-16T22:51:26.329Z,3.63
2023-04-16T22:56:31.200Z,2.95
2023-04-16T23:01:36.575Z,2.72
2023-04-16T23:06:42.237Z,4.15
2023-04-16T23:11:46.622Z,4.35
2023-04-16T23:16:50.891Z,3.92
2023-04-16T23:21:56.615Z,3.83
2023-04-16T23:27:01.242Z,4.35
2023-04-16T23:32:06.342Z,4.70
2023-04-16T23:37:11.980Z,3.30
2023-04-16T23:42:16.062Z,3.58
2023-04-16T23:47:20.175Z,3.35
2023-04-16T23:52:26.029Z,3.88
2023-04-16T23:57:30.237Z,3.75
